createdAt,value
2023-03-03T00:00:16.096Z,90.7
2023-03-03T00:02:14.966Z,90.7
2023-03-03T00:04:15.120Z,90.7
2023-03-03T00:06:15.008Z,90.7
2023-03-03T00:08:14.688Z,90.7
2023-03-03T00:10:14.637Z,90.7
2023-03-03T00:12:23.108Z,91
2023-03-03T00:14:21.776Z,91
2023-03-03T00:16:20.786Z,91
2023-03-03T00:18:22.059Z,91
2023-03-03T00:20:30.428Z,91
2023-03-03T00:22:20.464Z,90.7
2023-03-03T00:24:19.091Z,90.7
2023-03-03T00:26:21.431Z,90.7
2023-03-03T00:28:23.489Z,90.7
2023-03-03T00:30:22.541Z,90.7
2023-03-03T00:32:26.029Z,90.7
2023-03-03T00:34:24.138Z,90.7
2023-03-03T00:36:27.906Z,90.7
2023-03-03T00:38:16.812Z,90.7
2023-03-03T00:40:21.686Z,90.7
2023-03-03T00:42:14.350Z,90.9
2023-03-03T00:44:32.744Z,90.9
2023-03-03T00:46:17.114Z,90.9
2023-03-03T00:48:23.505Z,90.9
2023-03-03T00:50:31.369Z,90.9
2023-03-03T00:52:15.717Z,91
2023-03-03T00:54:12.228Z,91
2023-03-03T00:56:12.158Z,91
2023-03-03T00:58:14.266Z,91
2023-03-03T01:00:14.688Z,91.2
2023-03-03T01:02:11.794Z,91.1
2023-03-03T01:04:11.612Z,91.1
2023-03-03T01:06:12.088Z,91.1
2023-03-03T01:08:12.051Z,91.1
2023-03-03T01:10:12.241Z,91.1
2023-03-03T01:12:11.614Z,91.1
2023-03-03T01:14:11.279Z,91.1
2023-03-03T01:16:11.065Z,91.1
2023-03-03T01:18:11.750Z,91.1
2023-03-03T01:20:13.706Z,91.7
2023-03-03T01:22:10.648Z,91.4
2023-03-03T01:24:11.057Z,91.4
2023-03-03T01:26:10.433Z,91.4
2023-03-03T01:28:10.605Z,91.4
2023-03-03T01:30:10.923Z,91.4
2023-03-03T01:32:10.446Z,91.4
2023-03-03T01:34:10.029Z,91.1
2023-03-03T01:36:09.967Z,91.7
2023-03-03T01:38:09.877Z,91.7
2023-03-03T01:40:14.851Z,91.7
2023-03-03T01:42:09.543Z,91.6
2023-03-03T01:44:13.675Z,91.6
2023-03-03T01:46:30.999Z,91.6
2023-03-03T01:48:13.342Z,91.6
2023-03-03T01:50:14.454Z,92.3
2023-03-03T01:52:14.172Z,92.4
2023-03-03T01:54:14.138Z,92.9
2023-03-03T01:56:11.177Z,92.9
2023-03-03T01:58:13.754Z,92.9
2023-03-03T02:00:14.601Z,92.9
2023-03-03T02:02:09.088Z,92.9
2023-03-03T02:04:08.921Z,92.9
2023-03-03T02:06:12.793Z,92.9
2023-03-03T02:08:11.897Z,92.9
2023-03-03T02:10:11.724Z,92.9
2023-03-03T02:12:11.229Z,93.7
2023-03-03T02:14:07.784Z,93
2023-03-03T02:16:08.535Z,93
2023-03-03T02:18:12.360Z,93
2023-03-03T02:20:14.623Z,93
2023-03-03T02:22:07.279Z,93.3
2023-03-03T02:24:13.580Z,93.3
2023-03-03T02:26:09.866Z,93.3
2023-03-03T02:28:07.067Z,93.3
2023-03-03T02:30:18.312Z,93.3
2023-03-03T02:32:06.572Z,92.9
2023-03-03T02:34:07.240Z,92.9
2023-03-03T02:36:07.146Z,92.9
2023-03-03T02:38:17.290Z,92.9
2023-03-03T02:40:11.485Z,92.9
2023-03-03T02:42:15.941Z,93
2023-03-03T02:44:07.846Z,93
2023-03-03T02:46:05.969Z,93
2023-03-03T02:48:06.960Z,93
2023-03-03T02:50:06.318Z,92.4
2023-03-03T02:52:08.551Z,92.4
2023-03-03T02:54:06.346Z,93.2
2023-03-03T02:56:06.441Z,93.2
2023-03-03T02:58:05.406Z,93.2
2023-03-03T03:00:06.798Z,92.6
2023-03-03T03:02:05.060Z,92.4
2023-03-03T03:04:09.520Z,92.4
2023-03-03T03:06:05.244Z,92.4
2023-03-03T03:08:05.532Z,92.4
2023-03-03T03:10:06.382Z,93.2
2023-03-03T03:12:06.492Z,92.4
2023-03-03T03:14:06.448Z,92.4
2023-03-03T03:16:04.985Z,93.2
2023-03-03T03:18:04.937Z,92.7
2023-03-03T03:20:04.889Z,92.7
2023-03-03T03:22:05.393Z,92.9
2023-03-03T03:24:04.896Z,92.2
2023-03-03T03:26:04.913Z,92.8
2023-03-03T03:28:04.009Z,92.8
2023-03-03T03:30:04.610Z,92.8
2023-03-03T03:32:03.520Z,93
2023-03-03T03:34:03.729Z,93.1
2023-03-03T03:36:04.340Z,93.1
2023-03-03T03:38:04.081Z,93.1
2023-03-03T03:40:03.937Z,93.1
2023-03-03T03:42:03.218Z,93.1
2023-03-03T03:44:02.971Z,93.1
2023-03-03T03:46:04.074Z,93.8
2023-03-03T03:48:03.936Z,93.2
2023-03-03T03:50:02.692Z,93.2
2023-03-03T03:52:04.021Z,92.8
2023-03-03T03:54:02.409Z,92.8
2023-03-03T03:56:03.178Z,92.8
2023-03-03T03:58:02.466Z,92.8
2023-03-03T04:00:03.329Z,92.8
2023-03-03T04:02:02.198Z,93
2023-03-03T04:04:01.777Z,93
2023-03-03T04:06:01.972Z,92.6
2023-03-03T04:08:01.814Z,92.6
2023-03-03T04:10:01.961Z,92.6
2023-03-03T04:12:02.424Z,92.5
2023-03-03T04:14:01.523Z,92.6
2023-03-03T04:16:01.354Z,92.6
2023-03-03T04:18:01.481Z,92.6
2023-03-03T04:20:01.191Z,92.6
2023-03-03T04:22:00.814Z,92.5
2023-03-03T04:24:01.967Z,92.5
2023-03-03T04:26:00.866Z,92.5
2023-03-03T04:28:00.599Z,92.5
2023-03-03T04:30:01.183Z,92.5
2023-03-03T04:32:00.787Z,92.4
2023-03-03T04:34:00.546Z,92.4
2023-03-03T04:36:00.261Z,91.9
2023-03-03T04:38:00.302Z,91.9
2023-03-03T04:40:00.536Z,92.4
2023-03-03T04:42:00.356Z,92.2
2023-03-03T04:44:00.599Z,92.2
2023-03-03T04:45:59.992Z,92.2
2023-03-03T04:47:59.741Z,92.2
2023-03-03T04:50:00.720Z,92.2
2023-03-03T04:51:59.949Z,91.9
2023-03-03T04:53:59.435Z,91.8
2023-03-03T04:55:59.507Z,91.8
2023-03-03T04:57:59.405Z,91.8
2023-03-03T04:59:59.274Z,91.8
2023-03-03T05:01:59.467Z,91.6
2023-03-03T05:03:58.872Z,91
2023-03-03T05:05:58.772Z,91
2023-03-03T05:07:58.730Z,91
2023-03-03T05:09:58.880Z,91
2023-03-03T05:11:58.588Z,91.2
2023-03-03T05:13:58.517Z,91.2
2023-03-03T05:15:58.460Z,91.2
2023-03-03T05:17:58.884Z,91.2
2023-03-03T05:19:58.260Z,91.2
2023-03-03T05:21:58.260Z,91
2023-03-03T05:23:58.130Z,91
2023-03-03T05:25:58.079Z,91
2023-03-03T05:27:58.019Z,91
2023-03-03T05:29:57.809Z,91
2023-03-03T05:31:57.927Z,91.1
2023-03-03T05:33:57.775Z,91.1
2023-03-03T05:35:57.703Z,91.1
2023-03-03T05:37:57.789Z,91.6
2023-03-03T05:39:57.511Z,91.6
2023-03-03T05:41:57.541Z,91.4
2023-03-03T05:43:57.385Z,91
2023-03-03T05:45:57.967Z,91
2023-03-03T05:47:57.192Z,90.2
2023-03-03T05:49:57.216Z,90.2
2023-03-03T05:51:56.990Z,90.2
2023-03-03T05:53:56.997Z,90.2
2023-03-03T05:55:56.915Z,90.2
2023-03-03T05:57:56.881Z,90.2
2023-03-03T05:59:56.855Z,90.2
2023-03-03T06:01:56.772Z,90.5
2023-03-03T06:03:56.949Z,90.7
2023-03-03T06:05:56.722Z,90.7
2023-03-03T06:07:56.560Z,90.7
2023-03-03T06:09:57.145Z,90.7
2023-03-03T06:11:56.326Z,90.4
2023-03-03T06:13:56.441Z,90.4
2023-03-03T06:15:56.405Z,90.4
2023-03-03T06:17:56.414Z,90.1
2023-03-03T06:19:56.172Z,90.1
2023-03-03T06:21:56.168Z,90.8
2023-03-03T06:23:56.193Z,91.5
2023-03-03T06:25:57.474Z,92.1
2023-03-03T06:27:57.147Z,92.1
2023-03-03T06:29:55.934Z,92.1
2023-03-03T06:31:56.095Z,92.1
2023-03-03T06:33:55.867Z,92.1
2023-03-03T06:35:55.903Z,92.1
2023-03-03T06:37:55.927Z,92.1
2023-03-03T06:39:55.646Z,92.1
2023-03-03T06:41:55.611Z,91.5
2023-03-03T06:43:55.565Z,91.5
2023-03-03T06:45:55.487Z,90.9
2023-03-03T06:47:55.739Z,90.9
2023-03-03T06:49:55.229Z,90.9
2023-03-03T06:51:56.313Z,90.2
2023-03-03T06:53:56.627Z,90.8
2023-03-03T06:55:57.722Z,90.8
2023-03-03T06:57:55.162Z,90.8
2023-03-03T06:59:59.533Z,90.8
2023-03-03T07:01:55.474Z,89.8
2023-03-03T07:03:54.905Z,88.2
2023-03-03T07:05:55.061Z,88.8
2023-03-03T07:07:55.456Z,88.8
2023-03-03T07:09:56.475Z,89.6
2023-03-03T07:12:00.155Z,90.5
2023-03-03T07:13:55.016Z,90.5
2023-03-03T07:15:58.545Z,89.6
2023-03-03T07:17:55.991Z,88.2
2023-03-03T07:19:54.607Z,88.2
2023-03-03T07:21:54.664Z,89
2023-03-03T07:23:54.486Z,89
2023-03-03T07:25:54.886Z,88.5
2023-03-03T07:27:57.859Z,88.5
2023-03-03T07:30:08.595Z,89.2
2023-03-03T07:31:55.530Z,89
2023-03-03T07:33:56.267Z,88.7
2023-03-03T07:35:56.978Z,88.7
2023-03-03T07:37:55.272Z,88.7
2023-03-03T07:39:54.796Z,88
2023-03-03T07:41:59.973Z,87.9
2023-03-03T07:43:58.282Z,88.1
2023-03-03T07:45:57.853Z,88.1
2023-03-03T07:48:00.834Z,87.5
2023-03-03T07:49:55.558Z,88.2
2023-03-03T07:51:56.053Z,88
2023-03-03T07:54:00.155Z,88
2023-03-03T07:55:54.132Z,88
2023-03-03T07:57:54.640Z,88
2023-03-03T07:59:59.660Z,88
2023-03-03T08:01:55.435Z,87.6
2023-03-03T08:03:54.382Z,86.8
2023-03-03T08:05:53.675Z,86.8
2023-03-03T08:07:55.017Z,86.8
2023-03-03T08:09:59.278Z,86.8
2023-03-03T08:11:57.433Z,87.2
2023-03-03T08:13:53.560Z,87.2
2023-03-03T08:15:59.177Z,86.9
2023-03-03T08:17:54.683Z,86.9
2023-03-03T08:19:55.384Z,86.3
2023-03-03T08:22:00.507Z,86.1
2023-03-03T08:23:53.898Z,86.1
2023-03-03T08:25:53.835Z,86.1
2023-03-03T08:27:53.340Z,86.1
2023-03-03T08:29:53.382Z,86.8
2023-03-03T08:31:53.350Z,86.5
2023-03-03T08:33:53.306Z,86.5
2023-03-03T08:35:53.329Z,86.5
2023-03-03T08:37:53.461Z,86.5
2023-03-03T08:39:53.296Z,86.5
2023-03-03T08:41:53.144Z,85
2023-03-03T08:43:53.174Z,84.9
2023-03-03T08:45:57.081Z,83.6
2023-03-03T08:47:53.850Z,83.6
2023-03-03T08:49:53.215Z,82.9
2023-03-03T08:51:53.117Z,83.5
2023-03-03T08:53:53.323Z,83.5
2023-03-03T08:55:53.156Z,84.3
2023-03-03T08:57:53.075Z,84.2
2023-03-03T08:59:53.160Z,84.2
2023-03-03T09:01:53.194Z,84.8
2023-03-03T09:03:53.323Z,84.8
2023-03-03T09:05:53.193Z,84.8
2023-03-03T09:07:54.598Z,85.4
2023-03-03T09:09:53.257Z,84.8
2023-03-03T09:11:57.336Z,84.3
2023-03-03T09:14:01.658Z,84.3
2023-03-03T09:15:53.191Z,83.1
2023-03-03T09:17:53.684Z,83.1
2023-03-03T09:19:57.253Z,83.6
2023-03-03T09:21:54.472Z,83.7
2023-03-03T09:23:56.254Z,83.7
2023-03-03T09:25:53.563Z,84.1
2023-03-03T09:27:54.166Z,84.1
2023-03-03T09:29:53.152Z,83.5
2023-03-03T09:31:54.776Z,83.3
2023-03-03T09:33:53.613Z,82.9
2023-03-03T09:36:00.674Z,83.5
2023-03-03T09:37:53.157Z,84.1
2023-03-03T09:39:54.919Z,84.1
2023-03-03T09:42:25.193Z,84
2023-03-03T09:44:17.866Z,84
2023-03-03T09:46:03.905Z,84
2023-03-03T09:48:10.312Z,84
2023-03-03T09:50:03.339Z,83.5
2023-03-03T09:52:07.213Z,84.7
2023-03-03T09:54:04.935Z,84.7
2023-03-03T09:56:00.884Z,84.7
2023-03-03T09:58:11.307Z,83.7
2023-03-03T10:00:15.479Z,82.9
2023-03-03T10:02:10.077Z,83.2
2023-03-03T10:04:05.716Z,83.2
2023-03-03T10:06:01.469Z,83.2
2023-03-03T10:08:09.555Z,83.9
2023-03-03T10:10:10.550Z,83.4
2023-03-03T10:12:04.156Z,84.1
2023-03-03T10:14:04.776Z,82.9
2023-03-03T10:16:17.610Z,81.4
2023-03-03T10:17:58.916Z,81.4
2023-03-03T10:20:05.825Z,82
2023-03-03T10:22:01.807Z,81.4
2023-03-03T10:23:58.875Z,81.9
2023-03-03T10:26:04.538Z,81.9
2023-03-03T10:28:06.274Z,81.9
2023-03-03T10:30:02.841Z,80.7
2023-03-03T10:32:08.980Z,80.5
2023-03-03T10:34:02.260Z,80.5
2023-03-03T10:36:08.356Z,80.5
2023-03-03T10:38:11.873Z,80.8
2023-03-03T10:40:07.754Z,81.7
2023-03-03T10:42:07.208Z,81.3
2023-03-03T10:44:08.331Z,81.3
2023-03-03T10:46:08.933Z,81.3
2023-03-03T10:48:05.941Z,81.3
2023-03-03T10:50:05.886Z,81.3
2023-03-03T10:52:06.460Z,83.2
2023-03-03T10:54:04.254Z,83.2
2023-03-03T10:56:15.369Z,83.2
2023-03-03T10:58:07.263Z,83.2
2023-03-03T11:00:07.694Z,84.2
2023-03-03T11:01:57.597Z,83.7
2023-03-03T11:04:16.013Z,83.7
2023-03-03T11:05:57.951Z,83.7
2023-03-03T11:07:57.789Z,83.7
2023-03-03T11:10:08.649Z,82.1
2023-03-03T11:11:59.894Z,82.1
2023-03-03T11:14:03.140Z,82.1
2023-03-03T11:16:05.362Z,82.1
2023-03-03T11:18:11.750Z,82.1
2023-03-03T11:20:07.757Z,83.2
2023-03-03T11:22:04.374Z,83.8
2023-03-03T11:24:00.942Z,84.5
2023-03-03T11:26:07.197Z,85.7
2023-03-03T11:28:17.634Z,86.6
2023-03-03T11:30:06.442Z,86.6
2023-03-03T11:31:57.122Z,85.6
2023-03-03T11:34:00.308Z,85.6
2023-03-03T11:36:08.487Z,84.8
2023-03-03T11:38:06.022Z,83.6
2023-03-03T11:39:57.621Z,83.6
2023-03-03T11:42:05.033Z,83.8
2023-03-03T11:43:59.836Z,83.8
2023-03-03T11:45:58.203Z,83.8
2023-03-03T11:48:00.432Z,82.7
2023-03-03T11:50:00.291Z,81.1
2023-03-03T11:52:03.233Z,80.4
2023-03-03T11:53:59.322Z,80.4
2023-03-03T11:55:59.621Z,80.4
2023-03-03T11:58:03.758Z,79.6
2023-03-03T12:00:12.029Z,79.6
2023-03-03T12:01:57.130Z,79.5
2023-03-03T12:03:57.836Z,79.5
2023-03-03T12:06:01.259Z,79.5
2023-03-03T12:08:03.377Z,79.5
2023-03-03T12:10:02.199Z,79.5
2023-03-03T12:12:02.744Z,79.9
2023-03-03T12:13:59.798Z,79.9
2023-03-03T12:16:04.116Z,79.6
2023-03-03T12:18:11.307Z,79.4
2023-03-03T12:20:02.556Z,81.1
2023-03-03T12:22:13.440Z,80.7
2023-03-03T12:24:11.370Z,80.7
2023-03-03T12:26:00.933Z,80.7
2023-03-03T12:28:00.302Z,80.4
2023-03-03T12:30:05.683Z,81.4
2023-03-03T12:32:02.583Z,81
2023-03-03T12:33:57.615Z,81
2023-03-03T12:36:04.565Z,82.1
2023-03-03T12:38:03.260Z,81.5
2023-03-03T12:40:05.263Z,82.3
2023-03-03T12:41:59.973Z,82.2
2023-03-03T12:44:02.095Z,82.2
2023-03-03T12:46:05.687Z,81.8
2023-03-03T12:48:00.383Z,81.8
2023-03-03T12:50:10.462Z,82.3
2023-03-03T12:52:08.408Z,82.3
2023-03-03T12:54:13.569Z,82.3
2023-03-03T12:56:00.099Z,82.3
2023-03-03T12:58:00.845Z,82.9
2023-03-03T13:00:17.698Z,82.3
2023-03-03T13:02:15.085Z,81.8
2023-03-03T13:04:03.909Z,81.8
2023-03-03T13:06:00.608Z,82.4
2023-03-03T13:08:10.529Z,81.6
2023-03-03T13:10:08.197Z,82.5
2023-03-03T13:12:04.756Z,82
2023-03-03T13:14:00.419Z,82
2023-03-03T13:16:06.089Z,80.6
2023-03-03T13:18:04.135Z,80.6
2023-03-03T13:19:57.535Z,80.6
2023-03-03T13:21:59.012Z,80.3
2023-03-03T13:24:02.637Z,80.3
2023-03-03T13:25:58.049Z,80.3
2023-03-03T13:28:00.234Z,80.3
2023-03-03T13:30:00.725Z,80.9
2023-03-03T13:31:58.445Z,81.6
2023-03-03T13:33:56.376Z,82.2
2023-03-03T13:35:57.552Z,83.2
2023-03-03T13:37:57.216Z,83.8
2023-03-03T13:39:59.260Z,83.8
2023-03-03T13:42:00.411Z,84.4
2023-03-03T13:43:59.318Z,84
2023-03-03T13:46:03.587Z,85.1
2023-03-03T13:48:06.201Z,84.8
2023-03-03T13:50:19.238Z,84.8
2023-03-03T13:52:01.833Z,85.5
2023-03-03T13:54:03.673Z,84.7
2023-03-03T13:56:00.549Z,84.7
2023-03-03T13:58:03.098Z,84.7
2023-03-03T14:00:12.771Z,83.8
2023-03-03T14:02:00.894Z,83.4
2023-03-03T14:04:01.166Z,83.4
2023-03-03T14:06:00.832Z,83.4
2023-03-03T14:07:59.223Z,84.6
2023-03-03T14:10:04.241Z,84.6
2023-03-03T14:12:00.183Z,84.6
2023-03-03T14:14:02.326Z,84.6
2023-03-03T14:15:57.641Z,84.6
2023-03-03T14:18:17.832Z,84.6
2023-03-03T14:20:06.097Z,84.6
2023-03-03T14:22:06.528Z,84.6
2023-03-03T14:24:01.458Z,85.1
2023-03-03T14:25:58.027Z,85.7
2023-03-03T14:28:02.076Z,85.7
2023-03-03T14:29:53.418Z,84.7
2023-03-03T14:31:54.075Z,84.6
2023-03-03T14:33:59.569Z,84.6
2023-03-03T14:36:04.540Z,84.6
2023-03-03T14:38:01.648Z,84.6
2023-03-03T14:40:13.591Z,84.6
2023-03-03T14:41:52.948Z,84.4
2023-03-03T14:43:58.533Z,84.4
2023-03-03T14:45:53.639Z,84.4
2023-03-03T14:47:52.946Z,83.8
2023-03-03T14:49:53.826Z,84.1
2023-03-03T14:51:52.793Z,84.2
2023-03-03T14:53:53.040Z,84.2
2023-03-03T14:55:53.482Z,85.6
2023-03-03T14:57:52.679Z,84.4
2023-03-03T14:59:58.149Z,85.3
2023-03-03T15:02:02.196Z,85.5
2023-03-03T15:03:59.652Z,85.5
2023-03-03T15:05:56.251Z,85.5
2023-03-03T15:07:54.640Z,85.5
2023-03-03T15:09:52.268Z,85.2
2023-03-03T15:11:53.958Z,86.2
2023-03-03T15:13:52.346Z,84.4
2023-03-03T15:16:01.026Z,85.6
2023-03-03T15:17:57.482Z,85.1
2023-03-03T15:20:01.934Z,86.1
2023-03-03T15:22:02.190Z,85.6
2023-03-03T15:24:00.736Z,85.6
2023-03-03T15:25:59.103Z,86
2023-03-03T15:28:08.880Z,85.9
2023-03-03T15:30:03.741Z,86.4
2023-03-03T15:31:59.824Z,86.6
2023-03-03T15:34:03.181Z,86.6
2023-03-03T15:35:58.376Z,87.2
2023-03-03T15:37:59.671Z,86.2
2023-03-03T15:40:00.221Z,86.9
2023-03-03T15:42:02.690Z,85.9
2023-03-03T15:44:04.941Z,85.9
2023-03-03T15:45:57.956Z,85.9
2023-03-03T15:48:06.015Z,86.7
2023-03-03T15:50:07.335Z,85.5
2023-03-03T15:52:04.185Z,86
2023-03-03T15:54:17.266Z,86
2023-03-03T15:56:03.385Z,86.5
2023-03-03T15:58:04.460Z,87.4
2023-03-03T16:00:15.993Z,86.6
2023-03-03T16:01:59.132Z,87.4
2023-03-03T16:03:57.206Z,87.4
2023-03-03T16:05:54.771Z,87.4
2023-03-03T16:08:01.249Z,88
2023-03-03T16:10:02.634Z,88.5
2023-03-03T16:11:55.582Z,88.4
2023-03-03T16:14:03.277Z,88.4
2023-03-03T16:16:01.925Z,88.4
2023-03-03T16:17:58.738Z,89.1
2023-03-03T16:20:01.537Z,91.5
2023-03-03T16:22:10.764Z,89.5
2023-03-03T16:23:52.076Z,88.4
2023-03-03T16:26:05.978Z,87.8
2023-03-03T16:27:55.774Z,89
2023-03-03T16:30:02.424Z,88
2023-03-03T16:31:54.886Z,88.8
2023-03-03T16:34:00.800Z,88.7
2023-03-03T16:36:00.004Z,89.3
2023-03-03T16:37:59.167Z,88.8
2023-03-03T16:39:55.463Z,89.4
2023-03-03T16:41:57.852Z,89.8
2023-03-03T16:44:03.646Z,90
2023-03-03T16:45:50.827Z,90
2023-03-03T16:48:09.936Z,90.8
2023-03-03T16:49:56.335Z,89.9
2023-03-03T16:51:56.528Z,91
2023-03-03T16:53:57.015Z,91
2023-03-03T16:55:59.410Z,91.2
2023-03-03T16:58:03.535Z,90.6
2023-03-03T17:00:01.435Z,91.1
2023-03-03T17:01:58.819Z,90.8
2023-03-03T17:04:00.562Z,92.9
2023-03-03T17:05:53.717Z,91.3
2023-03-03T17:08:02.695Z,90.7
2023-03-03T17:10:02.977Z,90.7
2023-03-03T17:12:02.777Z,91
2023-03-03T17:14:12.163Z,91.4
2023-03-03T17:16:00.780Z,90.1
2023-03-03T17:17:56.140Z,90.1
2023-03-03T17:20:02.545Z,90.8
2023-03-03T17:22:02.828Z,90.9
2023-03-03T17:24:00.649Z,90.9
2023-03-03T17:25:57.194Z,90.9
2023-03-03T17:28:04.489Z,91.7
2023-03-03T17:30:01.438Z,91.7
2023-03-03T17:31:58.780Z,91.1
2023-03-03T17:34:04.615Z,91.1
2023-03-03T17:35:59.223Z,91.1
2023-03-03T17:37:58.163Z,91.1
2023-03-03T17:40:02.962Z,91.9
2023-03-03T17:41:57.993Z,91.7
2023-03-03T17:43:52.967Z,91.7
2023-03-03T17:45:51.372Z,91.7
2023-03-03T17:48:02.995Z,91.7
2023-03-03T17:50:01.862Z,91.7
2023-03-03T17:52:12.148Z,91.5
2023-03-03T17:54:04.456Z,91.5
2023-03-03T17:56:05.698Z,91.5
2023-03-03T17:58:03.747Z,91.3
2023-03-03T18:00:06.381Z,91.3
2023-03-03T18:01:59.958Z,90.7
2023-03-03T18:04:02.488Z,91.3
2023-03-03T18:06:08.980Z,91.3
2023-03-03T18:07:58.143Z,91.3
2023-03-03T18:10:03.038Z,90.8
2023-03-03T18:11:58.406Z,91.7
2023-03-03T18:14:01.559Z,91.1
2023-03-03T18:16:10.790Z,91.6
2023-03-03T18:18:01.554Z,91.6
2023-03-03T18:20:02.931Z,91.6
2023-03-03T18:21:54.312Z,91.6
2023-03-03T18:23:46.775Z,92.2
2023-03-03T18:25:55.905Z,92.2
2023-03-03T18:27:46.916Z,92.2
2023-03-03T18:30:19.596Z,92.2
2023-03-03T18:31:49.055Z,91.9
2023-03-03T18:34:06.601Z,92.9
2023-03-03T18:35:46.075Z,92.3
2023-03-03T18:37:45.863Z,92.3
2023-03-03T18:39:46.489Z,92.3
2023-03-03T18:42:05.127Z,91.8
2023-03-03T18:43:52.651Z,91.8
2023-03-03T18:45:48.759Z,92.3
2023-03-03T18:48:02.946Z,92.3
2023-03-03T18:49:50.663Z,92.3
2023-03-03T18:52:07.227Z,92.4
2023-03-03T18:54:00.761Z,92.4
2023-03-03T18:55:46.281Z,92.4
2023-03-03T18:58:02.328Z,92.4
2023-03-03T19:00:11.245Z,92.4
2023-03-03T19:01:45.646Z,92.6
2023-03-03T19:04:13.323Z,92.6
2023-03-03T19:05:49.132Z,92.8
2023-03-03T19:07:50.484Z,92.8
2023-03-03T19:09:47.976Z,92.1
2023-03-03T19:11:50.033Z,91.4
2023-03-03T19:13:45.646Z,91.4
2023-03-03T19:15:48.205Z,91.4
2023-03-03T19:17:48.876Z,91.4
2023-03-03T19:20:00.770Z,91.4
2023-03-03T19:21:46.943Z,92.1
2023-03-03T19:23:53.159Z,92.4
2023-03-03T19:25:43.139Z,90.7
2023-03-03T19:27:50.540Z,91.2
2023-03-03T19:30:00.202Z,91.2
2023-03-03T19:31:51.222Z,91.8
2023-03-03T19:33:55.777Z,91.8
2023-03-03T19:35:56.715Z,91.8
2023-03-03T19:37:50.444Z,91.8
2023-03-03T19:39:52.573Z,91.8
2023-03-03T19:41:59.313Z,92
2023-03-03T19:43:53.053Z,92
2023-03-03T19:45:55.928Z,92
2023-03-03T19:47:47.496Z,92
2023-03-03T19:49:57.477Z,91.2
2023-03-03T19:51:50.475Z,91.6
2023-03-03T19:53:53.947Z,91.8
2023-03-03T19:55:56.742Z,91.8
2023-03-03T19:57:52.126Z,91.8
2023-03-03T19:59:47.613Z,91.8
2023-03-03T20:01:50.087Z,91.6
2023-03-03T20:03:54.994Z,91.6
2023-03-03T20:05:46.299Z,91.6
2023-03-03T20:07:50.298Z,91.6
2023-03-03T20:09:49.194Z,91.6
2023-03-03T20:11:56.076Z,91.5
2023-03-03T20:13:53.778Z,91.5
2023-03-03T20:15:50.575Z,90.9
2023-03-03T20:17:52.301Z,90.9
2023-03-03T20:19:48.666Z,91.5
2023-03-03T20:21:48.522Z,91.3
2023-03-03T20:23:53.485Z,91.9
2023-03-03T20:25:44.651Z,91.9
2023-03-03T20:27:49.655Z,91.9
2023-03-03T20:30:01.210Z,91.3
2023-03-03T20:31:49.542Z,90.9
2023-03-03T20:33:51.673Z,91.9
2023-03-03T20:35:52.351Z,91.2
2023-03-03T20:37:49.112Z,91.2
2023-03-03T20:39:55.988Z,90.4
2023-03-03T20:41:55.047Z,91.2
2023-03-03T20:43:55.384Z,91.2
2023-03-03T20:45:52.021Z,91.2
2023-03-03T20:47:52.540Z,90.2
2023-03-03T20:49:53.528Z,90.2
2023-03-03T20:51:46.100Z,90.5
2023-03-03T20:53:48.257Z,90.3
2023-03-03T20:55:50.732Z,90.3
2023-03-03T20:57:48.248Z,90.3
2023-03-03T20:59:46.975Z,90.3
2023-03-03T21:01:47.990Z,90.2
2023-03-03T21:03:41.492Z,90.2
2023-03-03T21:05:55.570Z,90.2
2023-03-03T21:07:50.436Z,89.5
2023-03-03T21:09:39.050Z,89.5
2023-03-03T21:11:43.105Z,89.8
2023-03-03T21:13:40.102Z,89.8
2023-03-03T21:15:38.307Z,89.8
2023-03-03T21:17:38.293Z,89.6
2023-03-03T21:19:38.230Z,89.6
2023-03-03T21:21:40.425Z,89.7
2023-03-03T21:23:38.092Z,89.7
2023-03-03T21:25:48.145Z,89.7
2023-03-03T21:27:37.817Z,89
2023-03-03T21:29:37.719Z,89
2023-03-03T21:31:44.298Z,89.3
2023-03-03T21:33:42.886Z,89.3
2023-03-03T21:35:57.053Z,89.3
2023-03-03T21:37:48.151Z,89.3
2023-03-03T21:39:39.694Z,87.5
2023-03-03T21:41:50.923Z,87.8
2023-03-03T21:43:39.658Z,88.1
2023-03-03T21:45:37.194Z,89.2
2023-03-03T21:47:37.338Z,88.1
2023-03-03T21:49:40.415Z,89.3
2023-03-03T21:51:36.909Z,87.9
2023-03-03T21:53:36.813Z,87.9
2023-03-03T21:55:36.649Z,87.9
2023-03-03T21:57:36.722Z,87.9
2023-03-03T21:59:36.636Z,87.9
2023-03-03T22:01:38.278Z,88.1
2023-03-03T22:03:36.387Z,88.4
2023-03-03T22:05:36.408Z,88.4
2023-03-03T22:07:36.203Z,87.8
2023-03-03T22:09:37.169Z,88.5
2023-03-03T22:11:36.325Z,88.4
2023-03-03T22:13:35.946Z,88.4
2023-03-03T22:15:35.926Z,87.8
2023-03-03T22:17:35.773Z,87.3
2023-03-03T22:19:35.930Z,87.8
2023-03-03T22:21:37.427Z,87.5
2023-03-03T22:23:35.478Z,87.5
2023-03-03T22:25:35.383Z,87.5
2023-03-03T22:27:35.454Z,88.5
2023-03-03T22:29:35.217Z,87.2
2023-03-03T22:31:35.218Z,88.1
2023-03-03T22:33:35.238Z,88.1
2023-03-03T22:35:35.036Z,87.7
2023-03-03T22:37:34.887Z,88.8
2023-03-03T22:39:34.828Z,88.2
2023-03-03T22:41:34.697Z,87.7
2023-03-03T22:43:34.651Z,87.7
2023-03-03T22:45:34.695Z,88.4
2023-03-03T22:47:34.397Z,88.4
2023-03-03T22:49:34.261Z,88.4
2023-03-03T22:51:34.238Z,88.4
2023-03-03T22:53:34.099Z,88.5
2023-03-03T22:55:34.098Z,87.9
2023-03-03T22:57:33.884Z,87.9
2023-03-03T22:59:33.746Z,87.9
2023-03-03T23:01:33.749Z,87.9
2023-03-03T23:03:33.669Z,88.4
2023-03-03T23:05:34.350Z,88.4
2023-03-03T23:07:33.995Z,88.4
2023-03-03T23:09:33.417Z,88.8
2023-03-03T23:11:33.829Z,87.5
2023-03-03T23:13:33.108Z,87.5
2023-03-03T23:15:33.186Z,86.7
2023-03-03T23:17:32.988Z,87.8
2023-03-03T23:19:32.953Z,87.1
2023-03-03T23:21:32.803Z,86.5
2023-03-03T23:23:32.945Z,86.3
2023-03-03T23:25:32.572Z,87
2023-03-03T23:27:32.819Z,86.4
2023-03-03T23:29:32.341Z,87.2
2023-03-03T23:31:32.497Z,87.2
2023-03-03T23:33:32.231Z,86.3
2023-03-03T23:35:32.159Z,86.3
2023-03-03T23:37:32.164Z,86.6
2023-03-03T23:39:31.790Z,86.9
2023-03-03T23:41:31.809Z,86.3
2023-03-03T23:43:31.888Z,86.5
2023-03-03T23:45:31.517Z,86.6
2023-03-03T23:47:31.479Z,87.4
2023-03-03T23:49:31.838Z,87.4
2023-03-03T23:51:31.830Z,87
2023-03-03T23:53:31.190Z,87
2023-03-03T23:55:31.113Z,87
2023-03-03T23:57:31.010Z,86.3
2023-03-03T23:59:30.911Z,88.8
